createdAt,value
2022-11-22T00:00:28.422Z,-0.07
2022-11-22T00:02:55.677Z,-0.08
2022-11-22T00:05:23.084Z,-0.10
2022-11-22T00:07:50.379Z,-0.10
2022-11-22T00:10:18.368Z,-0.07
2022-11-22T00:12:45.688Z,-0.10
2022-11-22T00:15:13.479Z,-0.11
2022-11-22T00:17:40.547Z,-0.10
2022-11-22T00:20:10.685Z,-0.22
2022-11-22T00:22:43.960Z,-0.22
2022-11-22T00:25:11.998Z,-0.22
2022-11-22T00:27:39.036Z,-0.23
2022-11-22T00:30:06.689Z,-0.24
2022-11-22T00:32:33.879Z,-0.25
2022-11-22T00:35:00.896Z,-0.20
2022-11-22T00:37:27.811Z,-0.29
2022-11-22T00:39:55.003Z,-0.25
2022-11-22T00:42:21.985Z,-0.27
2022-11-22T00:44:49.010Z,-0.27
2022-11-22T00:47:16.045Z,-0.38
2022-11-22T00:49:43.077Z,-0.31
2022-11-22T00:52:10.178Z,-0.37
2022-11-22T00:54:37.338Z,-0.40
2022-11-22T00:57:04.358Z,-0.42
2022-11-22T00:59:31.536Z,-0.35
2022-11-22T01:01:58.963Z,-0.39
2022-11-22T01:04:26.037Z,-0.38
2022-11-22T01:06:52.951Z,-0.51
2022-11-22T01:09:22.491Z,-0.49
2022-11-22T01:11:49.898Z,-0.46
2022-11-22T01:14:18.269Z,-0.58
2022-11-22T01:16:45.585Z,-0.58
2022-11-22T01:19:13.077Z,-0.61
2022-11-22T01:21:40.260Z,-0.52
2022-11-22T01:24:08.174Z,-0.59
2022-11-22T01:26:35.718Z,-0.59
2022-11-22T01:29:02.681Z,-0.68
2022-11-22T01:31:30.280Z,-0.67
2022-11-22T01:33:59.177Z,-0.72
2022-11-22T01:36:27.289Z,-0.69
2022-11-22T01:38:54.279Z,-0.73
2022-11-22T01:41:21.163Z,-0.72
2022-11-22T01:43:48.134Z,-0.80
2022-11-22T01:46:27.196Z,-0.73
2022-11-22T01:49:02.591Z,-0.75
2022-11-22T01:51:40.438Z,-0.74
2022-11-22T01:54:14.631Z,-0.80
2022-11-22T01:56:45.792Z,-0.83
2022-11-22T01:59:17.161Z,-0.80
2022-11-22T02:01:44.201Z,-0.76
2022-11-22T02:04:14.375Z,-0.81
2022-11-22T02:07:14.223Z,-0.75
2022-11-22T02:09:42.613Z,-0.75
2022-11-22T02:12:11.498Z,-0.75
2022-11-22T02:14:40.426Z,-0.75
2022-11-22T02:17:07.377Z,-0.76
2022-11-22T02:19:46.767Z,-0.78
2022-11-22T02:22:16.642Z,-0.81
2022-11-22T02:24:52.238Z,-0.80
2022-11-22T02:27:19.212Z,-0.84
2022-11-22T02:29:46.450Z,-0.87
2022-11-22T02:32:13.376Z,-0.84
2022-11-22T02:34:45.513Z,-0.83
2022-11-22T02:37:15.966Z,-0.78
2022-11-22T02:39:46.128Z,-0.85
2022-11-22T02:42:13.500Z,-0.87
2022-11-22T02:44:41.621Z,-0.87
2022-11-22T02:47:08.941Z,-0.92
2022-11-22T02:49:35.903Z,-0.91
2022-11-22T02:52:02.949Z,-0.93
2022-11-22T02:54:29.875Z,-0.88
2022-11-22T02:56:56.884Z,-0.83
2022-11-22T02:59:23.870Z,-0.88
2022-11-22T03:01:50.855Z,-0.88
2022-11-22T03:04:26.913Z,-0.86
2022-11-22T03:06:58.728Z,-0.94
2022-11-22T03:09:26.959Z,-1.07
2022-11-22T03:11:54.872Z,-0.97
2022-11-22T03:14:22.080Z,-0.90
2022-11-22T03:16:49.516Z,-0.99
2022-11-22T03:19:16.655Z,-0.99
2022-11-22T03:21:45.331Z,-1.01
2022-11-22T03:24:12.796Z,-1.02
2022-11-22T03:26:39.942Z,-0.96
2022-11-22T03:29:06.910Z,-1.07
2022-11-22T03:31:33.917Z,-1.07
2022-11-22T03:34:00.822Z,-1.05
2022-11-22T03:36:27.676Z,-1.12
2022-11-22T03:38:54.701Z,-1.03
2022-11-22T03:41:21.733Z,-0.99
2022-11-22T03:43:48.587Z,-1.05
2022-11-22T03:46:16.769Z,-1.10
2022-11-22T03:48:43.661Z,-1.16
2022-11-22T03:51:10.603Z,-1.10
2022-11-22T03:53:38.315Z,-1.08
2022-11-22T03:56:06.210Z,-1.16
2022-11-22T03:58:34.046Z,-1.08
2022-11-22T04:01:01.213Z,-1.20
2022-11-22T04:03:28.464Z,-1.21
2022-11-22T04:05:55.406Z,-1.17
2022-11-22T04:08:22.579Z,-1.24
2022-11-22T04:10:50.275Z,-1.33
2022-11-22T04:13:17.939Z,-1.26
2022-11-22T04:15:45.164Z,-1.34
2022-11-22T04:18:13.430Z,-1.30
2022-11-22T04:20:59.397Z,-1.33
2022-11-22T04:23:33.509Z,-1.26
2022-11-22T04:26:01.220Z,-1.35
2022-11-22T04:28:53.591Z,-1.36
2022-11-22T04:31:33.901Z,-1.40
2022-11-22T04:34:00.793Z,-1.31
2022-11-22T04:36:27.689Z,-1.29
2022-11-22T04:38:54.635Z,-1.27
2022-11-22T04:41:21.578Z,-1.22
2022-11-22T04:44:07.197Z,-1.17
2022-11-22T04:46:34.094Z,-1.25
2022-11-22T04:49:01.047Z,-1.18
2022-11-22T04:51:46.685Z,-1.20
2022-11-22T04:54:13.576Z,-1.24
2022-11-22T06:26:14.071Z,-1.17
2022-11-22T06:28:42.160Z,-1.04
2022-11-22T06:31:18.386Z,-0.90
2022-11-22T06:33:46.028Z,-0.80
2022-11-22T06:36:21.893Z,-0.66
2022-11-22T06:38:49.246Z,-0.54
2022-11-22T06:41:24.917Z,-0.49
2022-11-22T06:43:54.176Z,-0.38
2022-11-22T06:46:23.316Z,-0.29
2022-11-22T06:48:51.247Z,-0.23
2022-11-22T06:51:25.947Z,-0.22
2022-11-22T06:53:56.659Z,-0.26
2022-11-22T06:56:27.316Z,-0.11
2022-11-22T06:58:55.446Z,-0.07
2022-11-22T07:01:24.150Z,-0.12
2022-11-22T07:03:52.249Z,-0.22
2022-11-22T07:06:20.120Z,-0.01
2022-11-22T07:08:47.869Z,0.09
2022-11-22T07:11:17.205Z,0.05
2022-11-22T07:13:45.196Z,0.16
2022-11-22T07:16:14.298Z,0.11
2022-11-22T07:18:41.864Z,0.07
2022-11-22T07:21:14.962Z,0.02
2022-11-22T07:23:44.054Z,0.11
2022-11-22T07:26:12.289Z,0.06
2022-11-22T07:28:39.776Z,0.13
2022-11-22T07:31:08.826Z,0.30
2022-11-22T07:33:36.298Z,0.40
2022-11-22T07:36:11.196Z,0.44
2022-11-22T07:38:38.598Z,0.40
2022-11-22T07:41:07.388Z,0.39
2022-11-22T07:43:35.373Z,0.46
2022-11-22T07:46:07.235Z,0.38
2022-11-22T07:48:34.799Z,0.48
2022-11-22T07:51:06.636Z,0.59
2022-11-22T07:53:35.161Z,0.65
2022-11-22T07:56:06.101Z,0.59
2022-11-22T07:58:35.148Z,0.72
2022-11-22T08:01:10.683Z,0.71
2022-11-22T08:03:38.276Z,0.78
2022-11-22T08:06:07.769Z,0.78
2022-11-22T08:08:36.119Z,0.76
2022-11-22T08:11:04.265Z,0.90
2022-11-22T08:13:32.064Z,0.77
2022-11-22T08:16:08.343Z,0.94
2022-11-22T08:18:37.161Z,1.01
2022-11-22T08:21:12.715Z,1.00
2022-11-22T08:23:41.418Z,1.07
2022-11-22T08:26:11.085Z,1.17
2022-11-22T08:28:39.191Z,1.16
2022-11-22T08:31:09.309Z,1.26
2022-11-22T08:33:37.194Z,1.23
2022-11-22T08:36:05.151Z,1.26
2022-11-22T08:38:32.362Z,1.28
2022-11-22T08:40:59.400Z,1.32
2022-11-22T08:43:26.511Z,1.29
2022-11-22T08:45:56.980Z,1.33
2022-11-22T08:48:28.152Z,1.45
2022-11-22T08:50:57.697Z,1.48
2022-11-22T08:53:25.846Z,1.55
2022-11-22T08:55:53.623Z,1.62
2022-11-22T08:58:20.867Z,1.59
2022-11-22T09:00:47.795Z,1.69
2022-11-22T09:03:14.793Z,1.80
2022-11-22T09:08:31.423Z,1.89
2022-11-22T09:11:04.691Z,1.92
2022-11-22T09:13:32.621Z,1.94
2022-11-22T09:16:07.889Z,1.86
2022-11-22T09:18:35.188Z,1.89
2022-11-22T09:21:04.581Z,1.88
2022-11-22T09:23:32.061Z,1.82
2022-11-22T09:26:04.103Z,1.79
2022-11-22T09:28:31.334Z,1.89
2022-11-22T09:31:25.026Z,1.90
2022-11-22T09:33:52.657Z,1.85
2022-11-22T09:36:26.586Z,1.90
2022-11-22T09:38:54.259Z,1.98
2022-11-22T09:41:43.195Z,1.95
2022-11-22T09:44:19.003Z,1.91
2022-11-22T09:47:15.765Z,1.97
2022-11-22T09:49:55.092Z,2.05
2022-11-22T09:52:31.911Z,2.11
2022-11-22T09:55:24.327Z,1.99
2022-11-22T09:58:33.721Z,2.05
2022-11-22T10:01:23.896Z,2.05
2022-11-22T10:04:01.588Z,1.92
2022-11-22T10:06:36.281Z,2.04
2022-11-22T10:09:09.344Z,1.98
2022-11-22T10:11:54.469Z,2.04
2022-11-22T10:14:30.546Z,1.86
2022-11-22T10:17:39.458Z,1.93
2022-11-22T10:20:16.734Z,1.84
2022-11-22T10:22:44.308Z,1.88
2022-11-22T10:25:22.977Z,1.89
2022-11-22T10:28:05.836Z,1.91
2022-11-22T10:30:40.787Z,1.74
2022-11-22T10:33:15.856Z,1.76
2022-11-22T10:36:00.816Z,1.69
2022-11-22T10:39:07.588Z,1.66
2022-11-22T14:20:07.012Z,-0.26
2022-11-22T14:22:50.291Z,-0.27
2022-11-22T14:25:32.359Z,-0.25
2022-11-22T14:28:12.074Z,-0.11
2022-11-22T14:30:59.421Z,-0.10
2022-11-22T14:33:29.857Z,-0.06
2022-11-22T14:36:09.869Z,0.05
2022-11-22T14:38:41.445Z,0.11
2022-11-22T14:41:27.077Z,0.11
2022-11-22T14:44:20.285Z,0.15
2022-11-22T14:46:54.360Z,0.15
2022-11-22T14:49:48.146Z,0.18
2022-11-22T14:52:26.747Z,0.22
2022-11-22T14:54:58.265Z,0.28
2022-11-22T14:57:29.092Z,0.32
2022-11-22T15:00:04.739Z,0.38
2022-11-22T15:03:05.867Z,0.43
2022-11-22T15:09:16.794Z,0.43
2022-11-22T15:12:12.690Z,0.43
2022-11-22T15:14:42.972Z,0.49
2022-11-22T15:57:36.986Z,0.53
2022-11-22T16:00:11.206Z,0.56
2022-11-22T16:02:48.432Z,0.61
2022-11-22T16:06:08.554Z,0.55
2022-11-22T16:08:04.563Z,0.58
2022-11-22T16:10:37.939Z,0.58
2022-11-22T16:13:35.199Z,0.54
2022-11-22T16:16:11.250Z,0.48
2022-11-22T16:18:40.668Z,0.51
2022-11-22T16:21:11.374Z,0.57
2022-11-22T16:23:39.976Z,0.57
2022-11-22T16:26:25.245Z,0.58
2022-11-22T16:28:54.272Z,0.61
2022-11-22T16:31:26.447Z,0.62
2022-11-22T16:33:55.142Z,0.57
2022-11-22T16:36:24.027Z,0.63
2022-11-22T16:38:51.724Z,0.65
2022-11-22T16:41:23.397Z,0.71
2022-11-22T16:43:57.163Z,0.65
2022-11-22T16:46:24.622Z,0.68
2022-11-22T16:48:51.806Z,0.72
2022-11-22T16:51:29.565Z,0.67
2022-11-22T16:54:08.269Z,0.75
2022-11-22T16:56:35.257Z,0.72
2022-11-22T16:59:06.403Z,0.71
2022-11-22T17:01:37.353Z,0.73
2022-11-22T17:04:05.070Z,0.76
2022-11-22T17:06:32.986Z,0.77
2022-11-22T17:09:01.045Z,0.72
2022-11-22T17:11:32.354Z,0.79
2022-11-22T17:14:00.530Z,0.78
2022-11-22T17:16:27.789Z,0.77
2022-11-22T17:18:54.958Z,0.79
2022-11-22T17:21:37.721Z,0.79
2022-11-22T17:24:14.835Z,0.77
2022-11-22T17:26:41.956Z,0.78
2022-11-22T17:29:18.392Z,0.78
2022-11-22T17:31:56.325Z,0.78
2022-11-22T17:34:23.720Z,0.79
2022-11-22T17:36:50.824Z,0.80
2022-11-22T17:39:18.131Z,0.80
2022-11-22T17:41:48.948Z,0.80
2022-11-22T17:44:18.129Z,0.78
2022-11-22T17:46:47.349Z,0.77
2022-11-22T17:49:16.427Z,0.69
2022-11-22T17:51:55.364Z,0.72
2022-11-22T17:54:22.694Z,0.68
2022-11-22T17:56:49.930Z,0.72
2022-11-22T17:59:17.148Z,0.70
2022-11-22T18:01:44.268Z,0.70
